createdAt,value
2023-03-03T00:01:33.761Z,-1.30
2023-03-03T00:04:02.339Z,-1.30
2023-03-03T00:06:30.742Z,-1.30
2023-03-03T00:08:58.466Z,-1.30
2023-03-03T00:11:26.237Z,-1.30
2023-03-03T00:13:56.708Z,-1.30
2023-03-03T00:16:31.438Z,-1.30
2023-03-03T00:19:01.316Z,-1.40
2023-03-03T00:21:42.164Z,-1.40
2023-03-03T00:24:37.568Z,-1.34
2023-03-03T00:27:27.456Z,-1.30
2023-03-03T00:29:58.267Z,-1.30
2023-03-03T00:32:42.651Z,-1.40
2023-03-03T00:35:30.621Z,-1.40
2023-03-03T00:38:01.823Z,-1.40
2023-03-03T00:40:38.064Z,-1.30
2023-03-03T00:43:29.501Z,-1.30
2023-03-03T00:45:58.649Z,-1.30
2023-03-03T00:48:29.288Z,-1.40
2023-03-03T00:50:59.332Z,-1.40
2023-03-03T00:53:30.263Z,-1.40
2023-03-03T00:55:58.418Z,-1.40
2023-03-03T00:58:27.738Z,-1.38
2023-03-03T01:00:57.092Z,-1.30
2023-03-03T01:03:26.031Z,-1.30
2023-03-03T01:05:54.894Z,-1.28
2023-03-03T01:08:23.751Z,-1.20
2023-03-03T01:10:55.045Z,-1.20
2023-03-03T01:13:26.736Z,-1.20
2023-03-03T01:15:54.931Z,-1.10
2023-03-03T01:18:23.198Z,-1.10
2023-03-03T01:20:52.043Z,-1.10
2023-03-03T01:23:19.837Z,-1.10
2023-03-03T01:25:49.288Z,-1.10
2023-03-03T01:28:18.159Z,-1.06
2023-03-03T01:30:45.981Z,-1.02
2023-03-03T01:33:14.688Z,-1.10
2023-03-03T01:35:47.345Z,-1.10
2023-03-03T01:38:16.042Z,-1.10
2023-03-03T01:40:52.982Z,-1.20
2023-03-03T01:43:20.692Z,-1.20
2023-03-03T01:45:48.520Z,-1.30
2023-03-03T01:48:32.972Z,-1.40
2023-03-03T01:51:21.910Z,-1.44
2023-03-03T01:53:56.957Z,-1.50
2023-03-03T01:56:25.356Z,-1.60
2023-03-03T01:59:07.797Z,-1.60
2023-03-03T02:01:36.062Z,-1.60
2023-03-03T02:04:04.232Z,-1.60
2023-03-03T02:06:40.776Z,-1.60
2023-03-03T02:09:15.374Z,-1.50
2023-03-03T02:11:46.880Z,-1.46
2023-03-03T02:14:14.560Z,-1.48
2023-03-03T02:16:42.755Z,-1.50
2023-03-03T02:19:23.904Z,-1.50
2023-03-03T02:21:55.036Z,-1.44
2023-03-03T02:24:28.967Z,-1.40
2023-03-03T02:26:56.971Z,-1.40
2023-03-03T02:29:24.981Z,-1.40
2023-03-03T02:31:53.646Z,-1.40
2023-03-03T02:34:21.554Z,-1.40
2023-03-03T02:36:49.175Z,-1.40
2023-03-03T02:39:25.574Z,-1.40
2023-03-03T02:42:02.884Z,-1.40
2023-03-03T02:44:32.757Z,-1.40
2023-03-03T02:47:00.858Z,-1.40
2023-03-03T02:49:32.960Z,-1.40
2023-03-03T02:52:03.234Z,-1.38
2023-03-03T02:54:32.082Z,-1.40
2023-03-03T02:57:00.933Z,-1.40
2023-03-03T02:59:29.210Z,-1.40
2023-03-03T03:01:57.676Z,-1.48
2023-03-03T03:04:27.095Z,-1.50
2023-03-03T03:06:55.897Z,-1.50
2023-03-03T03:09:25.851Z,-1.50
2023-03-03T03:11:53.627Z,-1.50
2023-03-03T03:14:21.487Z,-1.50
2023-03-03T03:16:49.709Z,-1.50
2023-03-03T03:19:17.542Z,-1.50
2023-03-03T03:21:45.322Z,-1.56
2023-03-03T03:24:14.111Z,-1.60
2023-03-03T03:26:41.831Z,-1.60
2023-03-03T03:29:10.695Z,-1.60
2023-03-03T03:31:39.264Z,-1.54
2023-03-03T03:34:06.964Z,-1.50
2023-03-03T03:36:35.929Z,-1.50
2023-03-03T03:39:06.752Z,-1.50
2023-03-03T03:41:34.453Z,-1.50
2023-03-03T03:44:02.287Z,-1.52
2023-03-03T03:46:30.546Z,-1.58
2023-03-03T03:48:58.343Z,-1.60
2023-03-03T03:51:26.036Z,-1.70
2023-03-03T03:53:53.868Z,-1.74
2023-03-03T03:56:21.547Z,-1.80
2023-03-03T03:58:49.147Z,-1.80
2023-03-03T04:01:16.827Z,-1.80
2023-03-03T04:03:45.077Z,-1.88
2023-03-03T04:06:13.165Z,-1.92
2023-03-03T04:08:41.056Z,-1.90
2023-03-03T04:11:10.112Z,-1.98
2023-03-03T04:13:38.817Z,-1.90
2023-03-03T04:16:06.949Z,-1.90
2023-03-03T04:18:35.886Z,-1.90
2023-03-03T04:21:06.020Z,-1.94
2023-03-03T04:23:34.343Z,-1.90
2023-03-03T04:26:02.648Z,-1.88
2023-03-03T04:28:30.685Z,-1.80
2023-03-03T04:31:00.211Z,-1.82
2023-03-03T04:33:27.810Z,-1.90
2023-03-03T04:35:55.513Z,-2.00
2023-03-03T04:38:23.472Z,-2.00
2023-03-03T04:40:51.149Z,-2.00
2023-03-03T04:43:18.827Z,-1.90
2023-03-03T04:45:47.348Z,-1.90
2023-03-03T04:48:15.876Z,-1.80
2023-03-03T04:50:43.812Z,-1.70
2023-03-03T04:53:11.453Z,-1.60
2023-03-03T04:55:40.104Z,-1.60
2023-03-03T04:58:10.398Z,-1.60
2023-03-03T05:00:38.991Z,-1.70
2023-03-03T05:03:07.490Z,-1.70
2023-03-03T05:05:35.242Z,-1.70
2023-03-03T05:08:03.317Z,-1.70
2023-03-03T05:10:31.152Z,-1.70
2023-03-03T05:12:59.255Z,-1.70
2023-03-03T05:15:26.982Z,-1.70
2023-03-03T05:17:56.782Z,-1.70
2023-03-03T05:20:25.415Z,-1.70
2023-03-03T05:22:55.444Z,-1.70
2023-03-03T05:25:23.584Z,-1.70
2023-03-03T05:27:51.246Z,-1.70
2023-03-03T05:30:19.091Z,-1.70
2023-03-03T05:32:49.283Z,-1.70
2023-03-03T05:35:17.250Z,-1.76
2023-03-03T05:37:47.868Z,-1.88
2023-03-03T05:40:15.840Z,-1.90
2023-03-03T05:42:44.259Z,-1.90
2023-03-03T05:45:13.119Z,-1.90
2023-03-03T05:47:40.816Z,-1.98
2023-03-03T05:50:09.861Z,-2.00
2023-03-03T05:52:38.434Z,-2.00
2023-03-03T05:55:06.661Z,-2.00
2023-03-03T05:57:35.877Z,-2.00
2023-03-03T06:00:06.097Z,-2.00
2023-03-03T06:02:35.220Z,-2.08
2023-03-03T06:05:03.085Z,-2.00
2023-03-03T06:07:30.766Z,-2.00
2023-03-03T06:09:58.608Z,-2.00
2023-03-03T06:12:26.410Z,-2.00
2023-03-03T06:14:54.304Z,-2.00
2023-03-03T06:17:21.908Z,-2.00
2023-03-03T06:19:49.716Z,-2.00
2023-03-03T06:22:17.461Z,-2.06
2023-03-03T06:24:47.504Z,-2.10
2023-03-03T06:27:15.876Z,-2.10
2023-03-03T06:29:43.597Z,-2.10
2023-03-03T06:32:11.726Z,-2.10
2023-03-03T06:34:39.692Z,-2.10
2023-03-03T06:37:09.865Z,-2.10
2023-03-03T06:39:38.027Z,-2.10
2023-03-03T06:42:06.331Z,-2.08
2023-03-03T06:44:36.804Z,-2.10
2023-03-03T06:47:06.496Z,-2.10
2023-03-03T06:49:34.173Z,-2.16
2023-03-03T06:52:11.974Z,-2.20
2023-03-03T06:54:39.973Z,-2.16
2023-03-03T06:57:23.894Z,-2.10
2023-03-03T06:59:54.467Z,-2.04
2023-03-03T07:02:22.790Z,-2.00
2023-03-03T07:04:53.432Z,-1.90
2023-03-03T07:07:24.913Z,-1.90
2023-03-03T07:09:55.647Z,-2.00
2023-03-03T07:12:27.476Z,-2.00
2023-03-03T07:15:14.895Z,-2.00
2023-03-03T07:17:46.176Z,-2.00
2023-03-03T07:20:36.255Z,-2.04
2023-03-03T07:23:26.382Z,-2.02
2023-03-03T07:25:55.618Z,-2.10
2023-03-03T07:28:30.837Z,-2.10
2023-03-03T07:30:59.087Z,-2.10
2023-03-03T07:33:35.483Z,-2.00
2023-03-03T07:36:04.499Z,-1.98
2023-03-03T07:38:39.265Z,-1.90
2023-03-03T07:41:28.201Z,-1.90
2023-03-03T07:44:28.189Z,-1.80
2023-03-03T07:46:55.915Z,-1.76
2023-03-03T07:49:36.888Z,-1.70
2023-03-03T07:52:40.208Z,-1.60
2023-03-03T07:55:23.225Z,-1.54
2023-03-03T07:57:52.401Z,-1.50
2023-03-03T08:00:20.011Z,-1.50
2023-03-03T08:02:59.293Z,-1.50
2023-03-03T08:05:43.515Z,-1.60
2023-03-03T08:08:44.203Z,-1.60
2023-03-03T08:11:13.119Z,-1.50
2023-03-03T08:13:43.137Z,-1.40
2023-03-03T08:16:10.987Z,-1.30
2023-03-03T08:18:57.892Z,-1.30
2023-03-03T08:21:26.547Z,-1.30
2023-03-03T08:23:54.435Z,-1.20
2023-03-03T08:26:25.803Z,-1.10
2023-03-03T08:28:54.378Z,-1.10
2023-03-03T08:31:39.836Z,-1.02
2023-03-03T08:34:10.257Z,-0.96
2023-03-03T08:36:39.004Z,-0.88
2023-03-03T08:39:07.795Z,-0.80
2023-03-03T08:41:35.701Z,-0.82
2023-03-03T08:44:04.218Z,-0.80
2023-03-03T08:46:33.354Z,-0.80
2023-03-03T08:49:01.697Z,-0.80
2023-03-03T08:51:31.186Z,-0.80
2023-03-03T08:54:00.113Z,-0.80
2023-03-03T08:56:28.353Z,-0.70
2023-03-03T08:59:03.577Z,-0.70
2023-03-03T09:01:34.188Z,-0.60
2023-03-03T09:04:04.128Z,-0.54
2023-03-03T09:06:31.960Z,-0.50
2023-03-03T09:08:59.774Z,-0.40
2023-03-03T09:11:29.237Z,-0.30
2023-03-03T09:14:18.240Z,-0.20
2023-03-03T09:16:51.510Z,-0.10
2023-03-03T09:19:31.383Z,-0.10
2023-03-03T09:22:15.009Z,0.00
2023-03-03T09:24:42.916Z,0.10
2023-03-03T09:27:27.730Z,0.10
2023-03-03T09:29:55.738Z,0.20
2023-03-03T09:32:38.179Z,0.20
2023-03-03T09:35:38.490Z,0.30
2023-03-03T09:38:26.731Z,0.40
2023-03-03T09:41:24.576Z,0.40
2023-03-03T09:44:12.331Z,0.50
2023-03-03T09:47:03.978Z,0.50
2023-03-03T09:49:59.691Z,0.60
2023-03-03T09:53:26.513Z,0.60
2023-03-03T09:56:13.414Z,0.70
2023-03-03T09:58:53.841Z,0.80
2023-03-03T10:02:21.243Z,0.90
2023-03-03T10:05:00.229Z,1.08
2023-03-03T10:07:35.444Z,1.10
2023-03-03T10:10:26.110Z,1.16
2023-03-03T10:13:12.011Z,1.20
2023-03-03T10:16:19.376Z,1.30
2023-03-03T10:19:02.837Z,1.30
2023-03-03T10:21:39.015Z,1.40
2023-03-03T10:24:21.803Z,1.40
2023-03-03T10:27:15.442Z,1.50
2023-03-03T10:30:39.906Z,1.50
2023-03-03T10:33:19.794Z,1.60
2023-03-03T10:36:30.296Z,1.62
2023-03-03T10:39:21.328Z,1.80
2023-03-03T10:42:07.536Z,1.90
2023-03-03T10:45:03.161Z,2.02
2023-03-03T10:47:46.430Z,2.20
2023-03-03T10:50:36.950Z,2.30
2023-03-03T10:53:21.770Z,2.40
2023-03-03T10:56:17.479Z,2.52
2023-03-03T10:58:56.120Z,3.00
2023-03-03T11:01:54.012Z,3.66
2023-03-03T11:04:48.011Z,4.26
2023-03-03T11:07:57.892Z,4.70
2023-03-03T11:10:47.309Z,5.10
2023-03-03T11:13:30.358Z,5.40
2023-03-03T11:16:17.156Z,5.50
2023-03-03T11:19:09.859Z,5.50
2023-03-03T11:21:48.911Z,5.62
2023-03-03T11:24:43.747Z,5.80
2023-03-03T11:27:43.648Z,5.90
2023-03-03T11:30:11.614Z,6.10
2023-03-03T11:32:51.477Z,6.20
2023-03-03T11:35:28.512Z,6.22
2023-03-03T11:38:17.982Z,6.30
2023-03-03T11:40:51.167Z,6.40
2023-03-03T11:43:37.380Z,6.40
2023-03-03T11:46:16.687Z,6.50
2023-03-03T11:49:44.490Z,6.50
2023-03-03T11:52:24.730Z,6.60
2023-03-03T11:55:11.606Z,6.60
2023-03-03T11:57:45.752Z,6.60
2023-03-03T12:00:44.884Z,6.60
2023-03-03T12:03:27.984Z,6.70
2023-03-03T12:06:13.363Z,6.80
2023-03-03T12:09:13.624Z,6.80
2023-03-03T12:11:48.694Z,6.90
2023-03-03T12:14:28.146Z,6.90
2023-03-03T12:16:58.398Z,6.90
2023-03-03T12:19:52.610Z,6.90
2023-03-03T12:22:40.087Z,6.98
2023-03-03T12:25:26.098Z,7.00
2023-03-03T12:28:20.497Z,7.10
2023-03-03T12:31:10.803Z,7.22
2023-03-03T12:33:54.186Z,7.30
2023-03-03T12:37:13.237Z,7.34
2023-03-03T12:40:00.718Z,7.32
2023-03-03T12:43:21.308Z,7.30
2023-03-03T12:46:07.092Z,7.20
2023-03-03T12:48:42.097Z,7.20
2023-03-03T12:51:36.004Z,7.20
2023-03-03T12:54:21.949Z,7.20
2023-03-03T12:56:52.961Z,7.10
2023-03-03T12:59:45.413Z,7.10
2023-03-03T13:02:29.842Z,7.10
2023-03-03T13:05:20.985Z,7.16
2023-03-03T13:08:20.273Z,7.20
2023-03-03T13:11:33.657Z,7.20
2023-03-03T13:14:29.821Z,7.20
2023-03-03T13:17:24.543Z,7.20
2023-03-03T13:19:58.058Z,7.20
2023-03-03T13:22:36.734Z,7.20
2023-03-03T13:25:33.337Z,7.20
2023-03-03T13:28:12.668Z,7.20
2023-03-03T13:30:57.128Z,7.20
2023-03-03T13:33:35.588Z,7.30
2023-03-03T13:36:09.071Z,7.40
2023-03-03T13:38:42.752Z,7.40
2023-03-03T13:41:22.448Z,7.50
2023-03-03T13:44:15.280Z,7.50
2023-03-03T13:47:13.880Z,7.60
2023-03-03T13:50:09.775Z,7.60
2023-03-03T13:52:51.485Z,7.70
2023-03-03T13:55:27.368Z,7.70
2023-03-03T13:58:18.605Z,7.78
2023-03-03T14:01:01.461Z,7.78
2023-03-03T14:03:51.439Z,7.80
2023-03-03T14:06:25.769Z,7.80
2023-03-03T14:09:47.193Z,7.80
2023-03-03T14:12:27.329Z,7.82
2023-03-03T14:15:06.945Z,7.80
2023-03-03T14:17:45.163Z,7.90
2023-03-03T14:20:24.292Z,7.90
2023-03-03T14:22:58.516Z,7.90
2023-03-03T14:25:26.240Z,7.90
2023-03-03T14:28:02.458Z,7.90
2023-03-03T14:30:40.760Z,8.00
2023-03-03T14:33:08.559Z,8.00
2023-03-03T14:35:40.660Z,8.00
2023-03-03T14:38:08.524Z,8.00
2023-03-03T14:40:39.262Z,8.00
2023-03-03T14:43:39.094Z,8.08
2023-03-03T14:46:32.308Z,8.00
2023-03-03T14:49:06.838Z,8.00
2023-03-03T14:51:49.906Z,8.00
2023-03-03T14:54:23.151Z,8.00
2023-03-03T14:57:19.129Z,8.00
2023-03-03T14:59:59.282Z,7.90
2023-03-03T15:02:54.204Z,7.90
2023-03-03T15:05:25.597Z,7.90
2023-03-03T15:07:57.415Z,7.90
2023-03-03T15:10:37.729Z,7.92
2023-03-03T15:13:20.524Z,8.00
2023-03-03T15:16:00.462Z,8.00
2023-03-03T15:18:32.507Z,8.00
2023-03-03T15:21:10.474Z,8.00
2023-03-03T15:23:57.452Z,8.00
2023-03-03T15:26:57.008Z,8.00
2023-03-03T15:29:24.648Z,8.00
2023-03-03T15:32:13.938Z,8.04
2023-03-03T15:35:02.743Z,8.00
2023-03-03T15:38:03.113Z,8.00
2023-03-03T15:40:30.866Z,8.00
2023-03-03T15:43:22.204Z,7.96
2023-03-03T15:46:19.994Z,7.90
2023-03-03T15:49:07.344Z,7.90
2023-03-03T15:52:12.684Z,7.80
2023-03-03T15:55:18.933Z,7.80
2023-03-03T15:57:57.619Z,7.80
2023-03-03T16:00:42.104Z,7.70
2023-03-03T16:03:21.679Z,7.60
2023-03-03T16:06:04.296Z,7.60
2023-03-03T16:08:50.613Z,7.50
2023-03-03T16:11:45.298Z,7.50
2023-03-03T16:14:34.658Z,7.50
2023-03-03T16:17:20.397Z,7.40
2023-03-03T16:19:53.877Z,7.40
2023-03-03T16:22:59.971Z,7.40
2023-03-03T16:26:07.135Z,7.40
2023-03-03T16:28:52.758Z,7.32
2023-03-03T16:31:37.148Z,7.30
2023-03-03T16:34:44.274Z,7.20
2023-03-03T16:37:39.782Z,7.08
2023-03-03T16:40:24.497Z,6.90
2023-03-03T16:43:02.985Z,6.80
2023-03-03T16:45:38.902Z,6.70
2023-03-03T16:48:31.069Z,6.60
2023-03-03T16:51:20.824Z,6.40
2023-03-03T16:53:56.619Z,6.22
2023-03-03T16:56:36.510Z,6.20
2023-03-03T16:59:37.887Z,6.10
2023-03-03T17:02:24.049Z,6.00
2023-03-03T17:05:12.327Z,5.82
2023-03-03T17:07:51.594Z,5.70
2023-03-03T17:10:29.596Z,5.70
2023-03-03T17:13:40.251Z,5.80
2023-03-03T17:16:42.862Z,5.80
2023-03-03T17:19:40.049Z,5.84
2023-03-03T17:22:44.801Z,5.90
2023-03-03T17:25:22.845Z,6.00
2023-03-03T17:28:12.530Z,5.94
2023-03-03T17:30:54.427Z,5.84
2023-03-03T17:33:41.700Z,5.70
2023-03-03T17:36:28.996Z,5.50
2023-03-03T17:39:24.755Z,5.40
2023-03-03T17:42:04.292Z,5.26
2023-03-03T17:45:08.435Z,5.10
2023-03-03T17:47:51.993Z,5.00
2023-03-03T17:50:30.749Z,4.90
2023-03-03T17:53:17.123Z,4.80
2023-03-03T17:55:59.413Z,4.70
2023-03-03T17:58:47.020Z,4.70
2023-03-03T18:01:27.292Z,4.60
2023-03-03T18:04:13.995Z,4.52
2023-03-03T18:07:12.055Z,4.50
2023-03-03T18:10:19.529Z,4.40
2023-03-03T18:13:03.714Z,4.30
2023-03-03T18:16:12.392Z,4.30
2023-03-03T18:19:24.631Z,4.28
2023-03-03T18:22:23.282Z,4.20
2023-03-03T18:25:00.191Z,4.12
2023-03-03T18:27:37.610Z,4.10
2023-03-03T18:30:28.670Z,4.10
2023-03-03T18:33:07.627Z,4.20
2023-03-03T18:35:46.917Z,4.20
2023-03-03T18:38:15.231Z,4.04
2023-03-03T18:41:02.666Z,4.00
2023-03-03T18:43:45.327Z,3.98
2023-03-03T18:46:38.491Z,3.90
2023-03-03T18:49:09.400Z,3.90
2023-03-03T18:51:37.618Z,3.76
2023-03-03T18:54:31.032Z,3.70
2023-03-03T18:57:03.892Z,3.60
2023-03-03T18:59:34.018Z,3.50
2023-03-03T19:02:30.849Z,3.50
2023-03-03T19:05:19.005Z,3.40
2023-03-03T19:08:01.299Z,3.30
2023-03-03T19:11:01.410Z,3.20
2023-03-03T19:13:35.050Z,3.10
2023-03-03T19:16:30.035Z,3.10
2023-03-03T19:19:01.379Z,3.10
2023-03-03T19:21:33.978Z,3.10
2023-03-03T19:24:05.624Z,3.20
2023-03-03T19:27:14.978Z,3.20
2023-03-03T19:29:46.663Z,3.20
2023-03-03T19:32:26.395Z,3.10
2023-03-03T19:35:36.519Z,3.04
2023-03-03T19:38:32.319Z,3.00
2023-03-03T19:41:23.939Z,2.90
2023-03-03T19:44:28.202Z,2.90
2023-03-03T19:47:01.124Z,2.88
2023-03-03T19:50:02.047Z,2.88
2023-03-03T19:52:46.832Z,2.80
2023-03-03T19:55:25.093Z,2.70
2023-03-03T19:58:25.517Z,2.60
2023-03-03T20:01:41.321Z,2.56
2023-03-03T20:04:22.796Z,2.48
2023-03-03T20:07:05.368Z,2.40
2023-03-03T20:09:47.525Z,2.40
2023-03-03T20:12:22.797Z,2.40
2023-03-03T20:15:15.274Z,2.30
2023-03-03T20:18:04.289Z,2.28
2023-03-03T20:20:54.735Z,2.10
2023-03-03T20:23:43.143Z,2.00
2023-03-03T20:26:19.937Z,2.00
2023-03-03T20:29:27.198Z,2.00
2023-03-03T20:32:23.288Z,1.90
2023-03-03T20:35:23.948Z,1.78
2023-03-03T20:38:10.039Z,1.70
2023-03-03T20:40:40.707Z,1.60
2023-03-03T20:43:21.439Z,1.50
2023-03-03T20:45:57.557Z,1.40
2023-03-03T20:48:58.044Z,1.40
2023-03-03T20:51:43.519Z,1.38
2023-03-03T20:54:47.166Z,1.30
2023-03-03T20:57:42.744Z,1.30
2023-03-03T21:00:32.117Z,1.30
2023-03-03T21:03:22.605Z,1.20
2023-03-03T21:06:15.801Z,1.30
2023-03-03T21:08:43.534Z,1.26
2023-03-03T21:11:22.145Z,1.30
2023-03-03T21:13:58.635Z,1.40
2023-03-03T21:16:26.658Z,1.34
2023-03-03T21:18:59.964Z,1.40
2023-03-03T21:21:30.673Z,1.30
2023-03-03T21:24:01.637Z,1.22
2023-03-03T21:26:55.427Z,1.20
2023-03-03T21:29:26.455Z,1.10
2023-03-03T21:32:05.313Z,1.00
2023-03-03T21:34:39.044Z,0.90
2023-03-03T21:37:14.932Z,0.84
2023-03-03T21:39:44.619Z,0.80
2023-03-03T21:42:16.678Z,0.86
2023-03-03T21:44:51.076Z,0.90
2023-03-03T21:47:21.711Z,0.90
2023-03-03T21:49:51.431Z,0.90
2023-03-03T21:52:21.967Z,0.90
2023-03-03T21:54:52.414Z,0.90
2023-03-03T21:57:20.274Z,0.90
2023-03-03T21:59:48.014Z,0.90
2023-03-03T22:02:15.660Z,0.90
2023-03-03T22:04:44.777Z,0.90
2023-03-03T22:07:13.376Z,0.90
2023-03-03T22:09:40.992Z,0.82
2023-03-03T22:12:08.712Z,0.80
2023-03-03T22:14:36.620Z,0.80
2023-03-03T22:17:04.352Z,0.70
2023-03-03T22:19:34.175Z,0.70
2023-03-03T22:22:03.042Z,0.70
2023-03-03T22:24:31.686Z,0.72
2023-03-03T22:26:59.490Z,0.80
2023-03-03T22:29:27.162Z,0.80
2023-03-03T22:31:54.836Z,0.80
2023-03-03T22:34:22.805Z,0.70
2023-03-03T22:36:50.464Z,0.60
2023-03-03T22:39:18.429Z,0.56
2023-03-03T22:41:46.051Z,0.50
2023-03-03T22:44:13.711Z,0.40
2023-03-03T22:46:41.360Z,0.30
2023-03-03T22:49:09.083Z,0.30
2023-03-03T22:51:37.383Z,0.20
2023-03-03T22:54:05.267Z,0.20
2023-03-03T22:56:32.987Z,0.26
2023-03-03T22:59:01.178Z,0.20
2023-03-03T23:01:29.549Z,0.20
2023-03-03T23:03:57.368Z,0.18
2023-03-03T23:06:25.078Z,0.10
2023-03-03T23:08:52.771Z,0.08
2023-03-03T23:11:21.913Z,0.10
2023-03-03T23:13:49.766Z,0.10
2023-03-03T23:16:18.113Z,0.10
2023-03-03T23:18:49.343Z,0.20
2023-03-03T23:21:17.713Z,0.20
2023-03-03T23:23:45.470Z,0.20
2023-03-03T23:26:13.424Z,0.40
2023-03-03T23:28:41.079Z,0.40
2023-03-03T23:31:08.796Z,0.30
2023-03-03T23:33:36.450Z,0.30
2023-03-03T23:36:04.512Z,0.40
2023-03-03T23:38:32.152Z,0.46
2023-03-03T23:40:59.831Z,0.50
2023-03-03T23:43:27.472Z,0.40
2023-03-03T23:45:55.415Z,0.40
2023-03-03T23:48:23.413Z,0.30
2023-03-03T23:50:51.116Z,0.28
2023-03-03T23:53:19.474Z,0.20
2023-03-03T23:55:47.143Z,0.20
2023-03-03T23:58:14.845Z,0.18
